Pt. Reyes RCA field Weather observations

Data are for 10 minute period ending at time listed.
 Day   Time   Solar   Ave.   Ave.  Ave.  Vector    Max.   Stn.   Total 
  of    of     Rad.   Air    Rel.  Wind   Wind     Wind   Baro. Precip.
Year   Day            Temp.  Hum.  Speed  Dir.     Gust   Pres.        
2014   (PST)   W/m2    F      %     mph   deg.      mph    mb.    in.  
-----------------------------------------------------------------------
 331    8:30  173.0    55   79.6     1    109.0     1.3   1018.0  0.00  
 331    8:40  165.0    56   77.9     2    117.1     2.4   1018.0  0.00  
 331    8:50  213.0    57   75.0     2    108.8     2.6   1018.0  0.00  
 331    9:00  234.0    59   69.6     1    108.9     2.2   1018.0  0.00  
 331    9:10  283.0    60   67.0     1     92.5     2.5   1018.0  0.00  
 331    9:20  289.0    61   63.3     3    139.5     4.1   1018.0  0.00  
 331    9:30  253.0    61   64.0     4    141.4     5.0   1018.0  0.00  
 331    9:40  226.0    61   64.2     3    150.9     4.9   1018.0  0.00  
 331    9:50  220.0    61   64.2     2    176.8     3.5   1018.0  0.00  
 331   10:00  370.0    62   63.9     2    181.3     3.4   1018.0  0.00  
 331   10:10  279.0    63   62.3     2    193.6     3.7   1018.0  0.00  
 331   10:20  290.0    63   61.4     2    202.7     4.7   1018.0  0.00  
 331   10:30  269.0    63   59.9     3    225.6     4.6   1018.0  0.00  
 331   10:40  310.0    62   63.3     4    258.9     5.8   1017.6  0.00  
 331   10:50  382.0    62   64.1     5    256.2     6.9   1017.6  0.00  
 331   11:00  480.0    63   62.5     4    246.9     6.6   1017.6  0.00  
 331   11:10  486.0    63   60.9     5    248.8     6.8   1017.6  0.00  
 331   11:20  401.0    62   64.6     6    258.8     8.7   1017.6  0.00  
 331   11:30  455.0    62   66.3     7    262.0     9.2   1017.6  0.00  
 331   11:40  254.0    61   69.0     7    262.7     9.3   1017.3  0.00  
 331   11:50  322.0    60   70.2     7    251.4     8.6   1016.9  0.00  
 331   12:00  421.0    61   70.9     7    251.0     7.9   1016.9  0.00  
 331   12:10  501.0    62   67.4     4    258.4     7.0   1016.6  0.00  
 331   12:20  532.0    64   65.5     4    268.4     5.8   1016.6  0.00  
 331   12:30  419.0    64   64.9     3    250.7     5.7   1016.6  0.00  
 331   12:40  331.0    63   69.5     7    264.7     9.7   1016.3  0.00  
 331   12:50  479.0    61   75.2     8    271.2    10.0   1016.3  0.00  
 331   13:00  483.0    61   74.4     7    272.0     9.6   1015.9  0.00  
 331   13:10  446.0    61   74.4     7    277.0     9.1   1015.9  0.00  
 331   13:20  457.0    62   74.1     6    281.4     9.0   1015.9  0.00  
 331   13:30  454.0    62   73.6     6    270.8     7.5   1015.6  0.00  
 331   13:40  433.0    62   73.2     4    267.7     6.4   1015.6  0.00  
 331   13:50  412.0    62   71.8     2    256.8     5.8   1015.2  0.00  
 331   14:00  393.0    64   67.1     2    220.8     3.1   1015.2  0.00  
 331   14:10  373.0    66   64.2     1    249.0     3.7   1015.2  0.00  
 331   14:20  354.0    64   69.1     6    269.7     7.7   1015.2  0.00  
 331   14:30  332.0    62   72.5     7    256.0     9.0   1015.2  0.00  
 331   14:40  310.0    61   76.4     8    254.5     9.0   1015.2  0.00  
 331   14:50  288.0    61   77.8     7    256.9     8.1   1014.9  0.00  
 331   15:00  266.0    61   77.4     5    257.0     7.6   1014.9  0.00  
 331   15:10  243.0    62   75.0     2    267.8     4.2   1014.9  0.00  
 331   15:20  220.0    63   72.6     1    290.4     2.3   1014.9  0.00  
 331   15:30  196.0    64   70.0     1     30.2     3.2   1014.6  0.00  
 331   15:40  171.0    64   69.7     1    276.5     2.0   1014.6  0.00  
 331   15:50  146.0    64   70.3     2    243.7     3.2   1014.6  0.00  
 331   16:00  124.0    62   75.5     2    261.2     3.1   1014.2  0.00  
 331   16:10   94.0    61   78.3     3    258.1     4.0   1014.2  0.00  
 331   16:20   65.0    60   81.1     3    270.0     4.4   1014.2  0.00  
 331   16:30   43.0    59   82.9     2    284.4     3.1   1014.2  0.00  
 331   16:40   22.0    58   83.8     2    297.7     2.6   1014.2  0.00  
 331   16:50    9.0    56   87.7     3    301.4     4.3   1014.2  0.00  
 331   17:00    5.0    55   91.3     4    291.7     4.9   1014.2  0.00  
 331   17:10    0.0    54   92.0     3    300.1     3.9   1014.2  0.00  
 331   17:20    0.0    53   92.9     3    304.8     3.8   1014.2  0.00  
 331   17:30    0.0    52   92.8     4    305.1     4.2   1014.2  0.00  
 331   17:40    0.0    51   94.3     4    303.9     4.0   1014.6  0.00  
 331   17:50    0.0    50   94.5     2    341.1     2.9   1014.6  0.00  
 331   18:00    0.0    50   95.3     2    338.8     2.7   1014.6  0.00  
 331   18:10    0.0    50   95.6     2    351.4     2.8   1014.6  0.00  
 331   18:20    0.0    51   96.3     2    348.4     3.7   1014.6  0.00  
 331   18:30    0.0    53   96.7     2      0.3     3.0   1014.6  0.00  
 331   18:40    0.0    53   96.7     2    359.8     2.9   1014.6  0.00  
 331   18:50    0.0    53   96.7     3    353.5     3.8   1014.6  0.00  
 331   19:00    0.0    54   96.9     2    339.0     4.4   1014.6  0.00  
 331   19:10    0.0    54   96.8     2      7.5     3.2   1014.6  0.00  
 331   19:20    0.0    54   96.8     1     19.2     3.3   1014.6  0.00  
 331   19:30    0.0    54   96.9     2    319.1     2.8   1014.9  0.00  
 331   19:40    0.0    54   97.0     2    327.7     3.7   1014.9  0.00  
 331   19:50    0.0    53   96.8     3     14.1     4.1   1014.9  0.00  
 331   20:00    0.0    54   97.0     4     18.1     4.5   1014.9  0.00  
 331   20:10    0.0    54   97.1     3    353.2     3.9   1014.9  0.00  
 331   20:20    0.0    54   97.1     3    358.1     3.8   1014.9  0.00  
 331   20:30    0.0    54   97.0     3      8.0     4.1   1014.9  0.00  
 331   20:40    0.0    53   97.0     2     11.6     2.3   1014.9  0.00  
 331   20:50    0.0    53   97.0     2     12.2     2.6   1014.9  0.00  
 331   21:00    0.0    53   97.0     2     15.4     2.3   1014.9  0.00  
 331   21:10    0.0    53   97.2     1     26.6     2.0   1014.9  0.00  
 331   21:20    0.0    52   97.1     2     34.8     2.3   1014.9  0.00  
 331   21:30    0.0    51   97.1     2     63.3     2.7   1014.9  0.00  
 331   21:40    0.0    51   97.2     1     60.6     1.7   1014.6  0.00  
 331   21:50    0.0    51   97.4     1     75.5     1.8   1014.6  0.00  
 331   22:00    0.0    51   97.4     2     98.7     2.1   1014.6  0.00  
 331   22:10    0.0    52   97.6     2    107.7     2.3   1014.6  0.00  
 331   22:20    0.0    51   97.5     2     97.8     2.5   1014.6  0.00  
 331   22:30    0.0    51   97.5     3    104.3     3.6   1014.6  0.00  
 331   22:40    0.0    50   97.5     3     99.9     3.7   1014.6  0.00  
 331   22:50    0.0    49   97.5     3    107.1     3.7   1014.6  0.00  
 331   23:00    0.0    50   97.7     4    107.3     4.6   1014.6  0.00  
 331   23:10    0.0    50   97.7     4     95.8     4.9   1014.6  0.00  
 331   23:20    0.0    50   97.6     5    105.4     5.7   1014.6  0.00  
 331   23:30    0.0    50   97.6     4    103.9     5.3   1014.6  0.00  
 331   23:40    0.0    50   97.6     4     95.7     5.2   1014.6  0.00  
 331   23:50    0.0    50   97.5     5     96.2     5.4   1014.2  0.00  
 332    0:00    0.0    50   97.4     5     90.5     6.1   1014.2  0.00  
 332    0:10    0.0    51   97.3     6     90.6     6.2   1014.2  0.00  
 332    0:20    0.0    51   97.1     5     92.9     6.1   1013.9  0.00  
 332    0:30    0.0    51   96.8     4    100.0     5.3   1013.9  0.00  
 332    0:40    0.0    50   96.5     4     99.0     4.9   1013.9  0.00  
 332    0:50    0.0    50   96.4     3    112.9     5.5   1013.9  0.00  
 332    1:00    0.0    50   96.6     4     90.7     5.6   1013.9  0.00  
 332    1:10    0.0    50   96.3     4     97.2     5.6   1013.9  0.00  
 332    1:20    0.0    50   96.1     4     96.8     4.8   1013.9  0.00  
 332    1:30    0.0    50   96.1     4     88.6     4.5   1013.5  0.00  
 332    1:40    0.0    50   96.2     4     89.3     4.9   1013.9  0.00  
 332    1:50    0.0    50   95.9     5     91.0     5.5   1013.5  0.00  
 332    2:00    0.0    49   96.0     4     90.7     5.2   1013.5  0.00  
 332    2:10    0.0    49   96.1     5     90.4     5.6   1013.5  0.00  
 332    2:20    0.0    49   96.0     5     90.2     5.2   1013.5  0.00  
 332    2:30    0.0    49   96.1     5     89.5     5.6   1013.5  0.00  
 332    2:40    0.0    49   96.0     4     84.1     5.1   1013.5  0.00  
 332    2:50    0.0    49   96.0     4     86.6     5.4   1013.5  0.00  
 332    3:00    0.0    49   96.0     4     88.4     5.7   1013.5  0.00  
 332    3:10    0.0    49   96.1     5     87.3     5.9   1013.2  0.00  
 332    3:20    0.0    49   95.6     5     92.3     5.5   1013.2  0.00  
 332    3:30    0.0    49   95.6     5     91.1     5.5   1012.9  0.00  
 332    3:40    0.0    50   95.6     4     89.8     5.4   1012.9  0.00  
 332    3:50    0.0    50   95.2     4     86.0     5.0   1012.9  0.00  
 332    4:00    0.0    50   94.7     5     90.7     5.7   1012.9  0.00  
 332    4:10    0.0    50   94.6     5     94.1     5.5   1012.5  0.00  
 332    4:20    0.0    49   94.8     4     91.5     5.6   1012.5  0.00  
 332    4:30    0.0    49   94.7     4     97.6     4.7   1012.5  0.00  
 332    4:40    0.0    49   95.0     3     96.0     3.4   1012.5  0.00  
 332    4:50    0.0    50   95.4     2     99.6     3.5   1012.5  0.00  
 332    5:00    0.0    50   95.0     4    105.3     5.2   1012.5  0.00  
 332    5:10    0.0    50   94.6     4     93.4     6.0   1012.5  0.00  
 332    5:20    0.0    49   93.7     5     98.9     6.7   1012.5  0.00  
 332    5:30    0.0    49   94.5     6    103.1     7.5   1012.5  0.00  
 332    5:40    0.0    50   94.5     5    101.1     6.6   1012.5  0.00  
 332    5:50    0.0    50   94.2     6    105.4     7.1   1012.5  0.00  
 332    6:00    0.0    50   93.9     6    108.9     7.2   1012.5  0.00  
 332    6:10    0.0    50   94.0     8    117.9    10.2   1012.2  0.00  
 332    6:20    0.0    51   93.0    10    123.0    12.3   1012.2  0.00  
 332    6:30    0.0    51   90.6    10    121.0    11.0   1012.2  0.00  
 332    6:40    0.0    51   90.9     8    128.4    10.1   1012.2  0.00  
 332    6:50    0.0    51   91.4     8    130.5     9.8   1012.2  0.00  
 332    7:00    0.0    52   90.0     9    135.0    11.5   1011.9  0.00  
 332    7:10    5.0    51   89.4     8    140.9    10.7   1011.9  0.00  
 332    7:20   10.0    51   90.6     8    149.2    10.0   1011.9  0.00  
 332    7:30   32.0    50   91.2     8    152.3    11.0   1012.2  0.00  
 332    7:40   63.0    52   91.1     8    151.8     9.3   1012.2  0.00  
 332    7:50   61.0    53   89.0     9    145.3    10.7   1012.2  0.00  
 332    8:00   51.0    54   87.6     9    140.3    11.5   1012.2  0.00  
 332    8:10   66.0    54   86.8     9    144.0    11.8   1012.2  0.00  
 332    8:20   84.0    54   87.4     8    141.2    11.4   1012.2  0.00  

Return to Pt. Reyes graphs page.


Western Regional Climate Center,wrcc@dri.edu